UTC: 22.09.2021 14:55:00
ilmateenistus.ee keskkonnaagentuur.ee
EETN Tallinn
FTEO31 EETN 221100
TAF EETN 221110Z 2212/2312 05005KT 9999 SCT015 BKN025 PROB40 TEMPO
    2221/2304 2000 BR BKN004 BECMG 2306/2308 15012KT=

METAR EETN 221450Z 07003KT 9999 OVC027 09/05 Q1020 NOSIG=
Tallinn
EEKA Kärdla
FCEO32 EETN 221200
TAF EEKA 221200Z 2213/2219 VRB02KT 9999 SCT020 PROB40 TEMPO 2217/2219
    2000 BR BKN004=

METAR EEKA 221450Z 00000KT CAVOK 09/05 Q1020=
Kärdla
EEKE Kuressaare
FCEO32 EETN 221400
TAF EEKE 221400Z 2215/2221 VRB02KT 9999 SCT025 PROB40 TEMPO 2217/2221
    2000 BR BKN004=

METAR EEKE 221450Z 17004KT 9999 SCT036 11/05 Q1020=
Kuressaare
EEPU Pärnu
METAR EEPU 221450Z NIL=
Pärnu
EETU Tartu
METAR EETU 221450Z 35008KT 320V030 9999 SCT036 12/04 Q1018=
Tartu
EEEI Ämari
METAR EEEI 221450Z 09003KT 070V130 9999 SCT025 09/05 Q1020 NOSIG=
Ämari